Time;durP1;ratioP1;P1;durP2;ratioP2;P2;SDS_P1;SDS_P2;PMS_P1;PMS_P2;Temp;Humidity;BMP_temperature;BMP_pressure;BME280_temperature;BME280_humidity;BME280_pressure;Samples;Min_cycle;Max_cycle;Signal;HPM_P1;HPM_P2
2023/12/20 00:01:47;;;;;;;0.03;0.03;;;5.40;99.90;;;;;;5049143;28;20261;-66
2023/12/20 00:04:12;;;;;;;0.00;0.00;;;5.40;99.90;;;;;;5049926;28;20219;-66
2023/12/20 00:06:38;;;;;;;0.10;0.10;;;5.40;99.90;;;;;;5049448;28;20319;-66
2023/12/20 00:09:03;;;;;;;0.00;0.00;;;5.40;99.90;;;;;;5048024;28;20230;-66
2023/12/20 00:11:29;;;;;;;0.00;0.00;;;5.40;99.90;;;;;;5051085;28;20220;-66
2023/12/20 00:13:54;;;;;;;0.00;0.00;;;5.40;99.90;;;;;;5054152;28;20185;-66
2023/12/20 00:16:20;;;;;;;0.20;0.20;;;5.40;99.90;;;;;;5053850;28;20272;-66
2023/12/20 00:18:45;;;;;;;0.00;0.00;;;5.40;99.90;;;;;;5053670;28;20209;-66
2023/12/20 00:21:11;;;;;;;0.30;0.30;;;5.40;99.90;;;;;;5053526;28;20177;-67
2023/12/20 00:23:36;;;;;;;0.10;0.10;;;5.30;99.90;;;;;;5053625;28;20209;-65
2023/12/20 00:26:02;;;;;;;0.00;0.00;;;5.30;99.90;;;;;;5058512;28;20231;-66
2023/12/20 00:28:28;;;;;;;0.00;0.00;;;5.30;99.90;;;;;;5060821;28;20197;-66
2023/12/20 00:30:53;;;;;;;0.10;0.10;;;5.30;99.90;;;;;;5053855;28;20173;-66
2023/12/20 00:33:19;;;;;;;0.00;0.00;;;5.30;99.90;;;;;;5053124;28;20639;-66
2023/12/20 00:35:44;;;;;;;0.00;0.00;;;5.30;99.90;;;;;;5052701;28;20166;-65
2023/12/20 00:38:11;;;;;;;0.00;0.00;;;5.30;99.90;;;;;;5052716;28;20225;-67
2023/12/20 00:40:36;;;;;;;0.00;0.00;;;5.30;99.90;;;;;;5053474;28;20267;-66
2023/12/20 00:43:02;;;;;;;0.00;0.00;;;5.30;99.90;;;;;;5052426;28;20181;-66
2023/12/20 00:45:28;;;;;;;0.00;0.00;;;5.30;99.90;;;;;;5053360;28;20551;-67
2023/12/20 00:47:53;;;;;;;0.00;0.00;;;5.30;99.90;;;;;;5053423;28;20178;-67
2023/12/20 00:50:19;;;;;;;1.75;1.13;;;5.30;99.90;;;;;;5053991;28;20177;-67
2023/12/20 00:52:44;;;;;;;0.68;0.68;;;5.20;99.90;;;;;;5053599;28;20173;-65
2023/12/20 00:55:10;;;;;;;0.05;0.05;;;5.30;99.90;;;;;;5053177;28;20197;-66
2023/12/20 00:57:35;;;;;;;0.05;0.05;;;5.20;99.90;;;;;;5060566;28;20269;-66
2023/12/20 01:00:01;;;;;;;0.00;0.00;;;5.20;99.90;;;;;;5052908;28;20210;-66
2023/12/20 01:02:27;;;;;;;0.00;0.00;;;5.20;99.90;;;;;;5053056;28;20771;-66
2023/12/20 01:04:52;;;;;;;0.00;0.00;;;5.20;99.90;;;;;;5053000;28;20236;-66
2023/12/20 01:07:18;;;;;;;1.33;1.27;;;5.20;99.90;;;;;;5052653;28;20532;-66
2023/12/20 01:09:44;;;;;;;0.00;0.00;;;5.20;99.90;;;;;;5053010;28;20189;-66
2023/12/20 01:12:10;;;;;;;0.17;0.17;;;5.20;99.90;;;;;;5052463;28;20181;-66
2023/12/20 01:14:35;;;;;;;0.73;0.73;;;5.20;99.90;;;;;;5052952;28;20658;-66
2023/12/20 01:17:01;;;;;;;0.00;0.00;;;5.20;99.90;;;;;;5052829;28;20177;-66
2023/12/20 01:19:28;;;;;;;0.00;0.00;;;5.20;99.90;;;;;;5052323;28;20729;-66
2023/12/20 01:21:53;;;;;;;0.00;0.00;;;5.20;99.90;;;;;;5052503;28;20178;-66
2023/12/20 01:24:19;;;;;;;0.00;0.00;;;5.10;99.90;;;;;;5051716;28;20178;-66
2023/12/20 01:26:44;;;;;;;0.00;0.00;;;5.20;99.90;;;;;;5063376;28;20199;-65
2023/12/20 01:29:10;;;;;;;0.00;0.00;;;5.20;99.90;;;;;;5057031;28;20220;-65
2023/12/20 01:31:35;;;;;;;0.00;0.00;;;5.20;99.90;;;;;;5051998;28;20268;-66
2023/12/20 01:34:01;;;;;;;0.00;0.00;;;5.20;99.90;;;;;;5049823;28;20177;-65
2023/12/20 01:36:26;;;;;;;0.00;0.00;;;5.20;99.90;;;;;;5051124;28;20197;-65
2023/12/20 01:38:52;;;;;;;0.00;0.00;;;5.20;99.90;;;;;;5051812;28;20236;-66
2023/12/20 01:41:17;;;;;;;0.00;0.00;;;5.20;99.90;;;;;;5052416;28;20276;-66
2023/12/20 01:43:43;;;;;;;0.00;0.00;;;5.30;99.90;;;;;;5051799;28;20246;-65
2023/12/20 01:46:09;;;;;;;0.00;0.00;;;5.30;99.90;;;;;;5052252;28;20181;-66
2023/12/20 01:48:35;;;;;;;0.00;0.00;;;5.30;99.90;;;;;;5052123;28;20173;-65
2023/12/20 01:51:02;;;;;;;0.08;0.08;;;5.20;99.90;;;;;;5050161;28;20193;-65
2023/12/20 01:53:28;;;;;;;0.00;0.00;;;5.30;99.90;;;;;;5048415;28;20178;-66
2023/12/20 01:55:56;;;;;;;0.00;0.00;;;5.30;99.90;;;;;;5052147;28;20189;-65
2023/12/20 01:58:22;;;;;;;0.00;0.00;;;5.30;99.90;;;;;;5043876;28;20272;-66
2023/12/20 02:00:48;;;;;;;0.00;0.00;;;5.40;99.90;;;;;;5050626;28;20217;-65
2023/12/20 02:03:14;;;;;;;0.00;0.00;;;5.40;99.90;;;;;;5051944;28;20184;-65
2023/12/20 02:05:40;;;;;;;0.00;0.00;;;5.40;99.90;;;;;;5051608;28;20220;-66
2023/12/20 02:08:06;;;;;;;0.00;0.00;;;5.40;99.90;;;;;;5052049;28;20531;-67
2023/12/20 02:10:32;;;;;;;0.00;0.00;;;5.40;99.90;;;;;;5051997;28;20641;-66
2023/12/20 02:12:58;;;;;;;0.00;0.00;;;5.40;99.90;;;;;;5051207;28;20195;-65
2023/12/20 02:15:24;;;;;;;0.00;0.00;;;5.40;99.90;;;;;;5051830;28;20192;-66
2023/12/20 02:17:50;;;;;;;0.00;0.00;;;5.40;99.90;;;;;;5050972;28;20268;-65
2023/12/20 02:20:15;;;;;;;0.00;0.00;;;5.40;99.90;;;;;;5051452;28;20388;-66
2023/12/20 02:22:41;;;;;;;0.00;0.00;;;5.40;99.90;;;;;;5051727;28;20235;-66
2023/12/20 02:25:07;;;;;;;0.00;0.00;;;5.40;99.90;;;;;;5051637;28;20295;-67
2023/12/20 02:27:32;;;;;;;0.10;0.10;;;5.40;99.90;;;;;;5051556;28;20535;-67
2023/12/20 02:29:58;;;;;;;0.00;0.00;;;5.40;99.90;;;;;;5051400;28;20181;-67
2023/12/20 02:32:27;;;;;;;0.00;0.00;;;5.40;99.90;;;;;;5051709;28;20227;-66
2023/12/20 02:34:54;;;;;;;0.00;0.00;;;5.40;99.90;;;;;;5051220;28;20185;-65
2023/12/20 02:37:20;;;;;;;0.00;0.00;;;5.40;99.90;;;;;;5051521;28;20177;-65
2023/12/20 02:39:45;;;;;;;0.00;0.00;;;5.40;99.90;;;;;;5050840;28;20577;-65
2023/12/20 02:42:11;;;;;;;0.00;0.00;;;5.40;99.90;;;;;;5050971;28;20181;-66
2023/12/20 02:44:36;;;;;;;0.00;0.00;;;5.40;99.90;;;;;;5051294;28;20189;-65
2023/12/20 02:47:02;;;;;;;0.00;0.00;;;5.40;99.90;;;;;;5051264;28;20193;-66
2023/12/20 02:49:28;;;;;;;0.00;0.00;;;5.40;99.90;;;;;;5051466;28;20659;-65
2023/12/20 02:51:53;;;;;;;0.00;0.00;;;5.40;99.90;;;;;;5050962;28;20205;-66
2023/12/20 02:54:19;;;;;;;0.00;0.00;;;5.40;99.90;;;;;;5051198;28;20190;-66
2023/12/20 02:56:44;;;;;;;0.00;0.00;;;5.40;99.90;;;;;;5048793;28;20295;-67
2023/12/20 02:59:10;;;;;;;0.00;0.00;;;5.40;99.90;;;;;;5044146;28;20570;-67
2023/12/20 03:01:42;;;;;;;0.00;0.00;;;5.40;99.90;;;;;;5051193;28;20663;-66
2023/12/20 03:04:08;;;;;;;0.00;0.00;;;5.40;99.90;;;;;;5050860;28;20577;-66
2023/12/20 03:06:33;;;;;;;0.00;0.00;;;5.40;99.90;;;;;;5051228;28;20177;-65
2023/12/20 03:08:59;;;;;;;0.00;0.00;;;5.40;99.90;;;;;;5050988;28;20181;-65
2023/12/20 03:11:27;;;;;;;0.00;0.00;;;5.40;99.90;;;;;;5051144;28;20640;-65
2023/12/20 03:13:53;;;;;;;0.00;0.00;;;5.40;99.90;;;;;;5050242;28;20178;-65
2023/12/20 03:16:18;;;;;;;0.00;0.00;;;5.40;99.90;;;;;;5048595;28;20246;-65
2023/12/20 03:18:44;;;;;;;0.00;0.00;;;5.40;99.90;;;;;;5050474;28;20185;-65
2023/12/20 03:21:09;;;;;;;0.00;0.00;;;5.40;99.90;;;;;;5050098;28;20200;-65
2023/12/20 03:23:35;;;;;;;0.00;0.00;;;5.40;99.90;;;;;;5050700;28;20250;-65
2023/12/20 03:26:00;;;;;;;0.00;0.00;;;5.40;99.90;;;;;;5050267;28;20185;-66
2023/12/20 03:28:27;;;;;;;0.00;0.00;;;5.40;99.90;;;;;;5050549;28;20177;-65
2023/12/20 03:30:53;;;;;;;0.00;0.00;;;5.40;99.90;;;;;;5050248;28;20613;-65
2023/12/20 03:33:18;;;;;;;0.00;0.00;;;5.40;99.90;;;;;;5050402;28;20212;-67
2023/12/20 03:35:44;;;;;;;0.00;0.00;;;5.40;99.90;;;;;;5050246;28;20193;-66
2023/12/20 03:38:10;;;;;;;0.00;0.00;;;5.40;99.90;;;;;;5049760;28;20225;-65
2023/12/20 03:40:35;;;;;;;0.00;0.00;;;5.30;99.90;;;;;;5050298;28;20221;-67
2023/12/20 03:43:01;;;;;;;0.00;0.00;;;5.30;99.90;;;;;;5050171;28;20177;-66
2023/12/20 03:45:26;;;;;;;0.00;0.00;;;5.30;99.90;;;;;;5049625;28;20193;-66
2023/12/20 03:47:55;;;;;;;0.00;0.00;;;5.30;99.90;;;;;;5049882;28;20185;-65
2023/12/20 03:50:22;;;;;;;0.00;0.00;;;5.30;99.90;;;;;;5050190;28;20192;-66
2023/12/20 03:52:47;;;;;;;0.00;0.00;;;5.30;99.90;;;;;;5050386;28;20173;-65
2023/12/20 03:55:13;;;;;;;0.00;0.00;;;5.30;99.90;;;;;;5050375;28;20230;-67
2023/12/20 03:57:38;;;;;;;0.00;0.00;;;5.30;99.90;;;;;;5047123;28;20725;-66
2023/12/20 04:00:05;;;;;;;0.00;0.00;;;5.30;99.90;;;;;;5050208;28;20222;-65
2023/12/20 04:02:31;;;;;;;0.00;0.00;;;5.30;99.90;;;;;;5036977;28;20177;-65
2023/12/20 04:04:56;;;;;;;0.00;0.00;;;5.30;99.90;;;;;;5050404;28;20547;-65
2023/12/20 04:07:22;;;;;;;0.00;0.00;;;5.30;99.90;;;;;;5051513;28;20174;-66
2023/12/20 04:09:48;;;;;;;0.10;0.10;;;5.30;99.90;;;;;;5050555;28;20525;-66
2023/12/20 04:12:13;;;;;;;0.00;0.00;;;5.30;99.90;;;;;;5050506;28;20552;-67
2023/12/20 04:14:39;;;;;;;0.00;0.00;;;5.30;99.90;;;;;;5050243;28;20192;-67
2023/12/20 04:17:05;;;;;;;0.00;0.00;;;5.30;99.90;;;;;;5049967;28;20217;-65
2023/12/20 04:19:30;;;;;;;0.00;0.00;;;5.30;99.90;;;;;;5050094;28;20580;-65
2023/12/20 04:21:56;;;;;;;0.00;0.00;;;5.20;99.90;;;;;;5049942;28;20203;-66
2023/12/20 04:24:22;;;;;;;0.00;0.00;;;5.30;99.90;;;;;;5049860;28;20216;-65
2023/12/20 04:26:48;;;;;;;0.00;0.00;;;5.30;99.90;;;;;;5049407;28;20177;-70
2023/12/20 04:29:13;;;;;;;0.00;0.00;;;5.30;99.90;;;;;;5048441;28;20185;-70
2023/12/20 04:31:39;;;;;;;0.00;0.00;;;5.30;99.90;;;;;;5049575;28;20181;-70
2023/12/20 04:34:04;;;;;;;0.00;0.00;;;5.40;99.90;;;;;;5045654;28;20188;-69
2023/12/20 04:36:30;;;;;;;0.00;0.00;;;5.30;99.90;;;;;;5049967;28;20619;-69
2023/12/20 04:38:55;;;;;;;0.00;0.00;;;5.30;99.90;;;;;;5049807;28;20225;-70
2023/12/20 04:41:21;;;;;;;0.00;0.00;;;5.40;99.90;;;;;;5050147;28;20182;-72
2023/12/20 04:43:46;;;;;;;0.00;0.00;;;5.30;99.90;;;;;;5050920;28;20173;-69
2023/12/20 04:46:12;;;;;;;0.00;0.00;;;5.30;99.90;;;;;;5052547;28;20634;-70
2023/12/20 04:48:37;;;;;;;0.00;0.00;;;5.40;99.90;;;;;;5053316;28;20185;-71
2023/12/20 04:51:03;;;;;;;0.00;0.00;;;5.40;99.90;;;;;;5056781;28;20170;-69
2023/12/20 04:53:28;;;;;;;0.00;0.00;;;5.40;99.90;;;;;;5062974;28;20182;-69
2023/12/20 04:55:54;;;;;;;0.00;0.00;;;5.40;99.90;;;;;;5069754;28;20211;-69
2023/12/20 04:58:19;;;;;;;0.00;0.00;;;5.40;99.90;;;;;;5052983;28;20189;-71
2023/12/20 05:00:45;;;;;;;0.00;0.00;;;5.40;99.90;;;;;;5062489;28;20193;-71
2023/12/20 05:03:10;;;;;;;0.00;0.00;;;5.40;99.90;;;;;;5066051;28;20219;-70
2023/12/20 05:05:36;;;;;;;0.00;0.00;;;5.40;99.90;;;;;;5070513;28;20186;-72
2023/12/20 05:08:01;;;;;;;0.00;0.00;;;5.40;99.90;;;;;;5067584;28;20170;-72
2023/12/20 05:10:27;;;;;;;0.00;0.00;;;5.40;99.90;;;;;;5067344;28;20203;-71
2023/12/20 05:12:53;;;;;;;0.00;0.00;;;5.40;99.90;;;;;;5061604;28;20538;-72
2023/12/20 05:15:18;;;;;;;0.05;0.05;;;5.40;99.90;;;;;;5053267;28;20769;-72
2023/12/20 05:17:44;;;;;;;0.00;0.00;;;5.40;99.90;;;;;;5052236;28;20181;-69
2023/12/20 05:20:10;;;;;;;0.00;0.00;;;5.40;99.90;;;;;;5053246;28;20229;-70
2023/12/20 05:22:36;;;;;;;0.00;0.00;;;5.40;99.90;;;;;;5053130;28;20182;-72
2023/12/20 05:25:01;;;;;;;0.00;0.00;;;5.40;99.90;;;;;;5053256;28;20178;-69
2023/12/20 05:27:27;;;;;;;0.00;0.00;;;5.40;99.90;;;;;;5053229;28;20239;-71
2023/12/20 05:29:53;;;;;;;0.00;0.00;;;5.40;99.90;;;;;;5052989;28;20188;-69
2023/12/20 05:32:18;;;;;;;0.00;0.00;;;5.40;99.90;;;;;;5053032;28;20178;-70
2023/12/20 05:34:44;;;;;;;0.00;0.00;;;5.30;99.90;;;;;;5052966;28;20178;-70
2023/12/20 05:37:09;;;;;;;0.00;0.00;;;5.30;99.90;;;;;;5052473;28;20188;-70
2023/12/20 05:39:35;;;;;;;0.00;0.00;;;5.40;99.90;;;;;;5052831;28;20578;-68
2023/12/20 05:42:00;;;;;;;0.00;0.00;;;5.30;99.90;;;;;;5052718;28;20188;-72
2023/12/20 05:44:26;;;;;;;0.00;0.00;;;5.30;99.90;;;;;;5052360;28;20239;-69
2023/12/20 05:46:51;;;;;;;0.00;0.00;;;5.30;99.90;;;;;;5052415;28;20177;-71
2023/12/20 05:49:17;;;;;;;0.00;0.00;;;5.30;99.90;;;;;;5052116;28;20181;-70
2023/12/20 05:51:42;;;;;;;0.00;0.00;;;5.40;99.90;;;;;;5053012;28;20240;-71
2023/12/20 05:54:09;;;;;;;0.00;0.00;;;5.40;99.90;;;;;;5052591;28;20178;-70
2023/12/20 05:56:34;;;;;;;0.00;0.00;;;5.40;99.90;;;;;;5051744;28;20204;-71
2023/12/20 05:59:00;;;;;;;0.00;0.00;;;5.40;99.90;;;;;;5032697;28;20665;-70
2023/12/20 06:01:25;;;;;;;0.00;0.00;;;5.40;99.90;;;;;;5032786;28;20265;-71
2023/12/20 06:03:51;;;;;;;0.00;0.00;;;5.40;99.90;;;;;;5032709;28;20171;-70
2023/12/20 06:06:17;;;;;;;0.10;0.10;;;5.40;99.90;;;;;;5032825;28;20179;-71
2023/12/20 06:08:43;;;;;;;0.00;0.00;;;5.40;99.90;;;;;;5032401;28;20718;-71
2023/12/20 06:11:08;;;;;;;0.00;0.00;;;5.40;99.90;;;;;;5032552;28;20692;-71
2023/12/20 06:13:35;;;;;;;0.00;0.00;;;5.40;99.90;;;;;;5032581;28;20163;-71
2023/12/20 06:16:01;;;;;;;0.10;0.10;;;5.40;99.90;;;;;;5032487;28;20185;-71
2023/12/20 06:18:26;;;;;;;0.00;0.00;;;5.40;99.90;;;;;;5032710;28;20163;-71
2023/12/20 06:20:52;;;;;;;0.00;0.00;;;5.40;99.90;;;;;;5032183;28;20678;-71
2023/12/20 06:23:17;;;;;;;0.00;0.00;;;5.40;99.90;;;;;;5032509;28;20618;-71
2023/12/20 06:25:44;;;;;;;0.00;0.00;;;5.40;99.90;;;;;;5031166;28;20178;-71
2023/12/20 06:28:10;;;;;;;0.00;0.00;;;5.40;99.90;;;;;;5032242;28;20232;-70
2023/12/20 06:30:35;;;;;;;0.00;0.00;;;5.40;99.90;;;;;;5034348;28;20269;-71
2023/12/20 06:33:01;;;;;;;0.20;0.20;;;5.40;99.90;;;;;;5052123;28;20204;-71
2023/12/20 06:35:27;;;;;;;0.00;0.00;;;5.40;99.90;;;;;;5052236;28;20652;-71
2023/12/20 06:37:52;;;;;;;0.00;0.00;;;5.40;99.90;;;;;;5051734;28;20301;-71
2023/12/20 06:40:18;;;;;;;0.00;0.00;;;5.40;99.90;;;;;;5052070;28;20339;-71
2023/12/20 06:42:44;;;;;;;0.00;0.00;;;5.40;99.90;;;;;;5052067;28;20644;-71
2023/12/20 06:45:10;;;;;;;0.13;0.13;;;5.40;99.90;;;;;;5051990;28;20184;-71
2023/12/20 06:47:35;;;;;;;1.20;0.63;;;5.40;99.90;;;;;;5051833;28;20177;-71
2023/12/20 06:50:01;;;;;;;0.00;0.00;;;5.40;99.90;;;;;;5051691;28;20260;-71
2023/12/20 06:52:26;;;;;;;0.00;0.00;;;5.40;99.90;;;;;;5050560;28;20174;-72
2023/12/20 06:54:52;;;;;;;0.00;0.00;;;5.40;99.90;;;;;;5050481;28;20188;-72
2023/12/20 06:57:19;;;;;;;0.00;0.00;;;5.40;99.90;;;;;;5051764;28;20189;-71
2023/12/20 06:59:45;;;;;;;0.00;0.00;;;5.40;99.90;;;;;;5050376;28;20209;-71
2023/12/20 07:02:10;;;;;;;0.10;0.10;;;5.40;99.90;;;;;;5051495;28;20231;-72
2023/12/20 07:04:40;;;;;;;0.00;0.00;;;5.50;99.90;;;;;;5051621;28;20200;-72
2023/12/20 07:07:07;;;;;;;0.00;0.00;;;5.40;99.90;;;;;;5051129;28;20196;-71
2023/12/20 07:09:32;;;;;;;0.00;0.00;;;5.50;99.90;;;;;;5051292;28;20177;-71
2023/12/20 07:11:58;;;;;;;0.00;0.00;;;5.50;99.90;;;;;;5051357;28;20272;-71
2023/12/20 07:14:23;;;;;;;0.00;0.00;;;5.40;99.90;;;;;;5051228;28;20194;-71
2023/12/20 07:16:49;;;;;;;0.10;0.10;;;5.40;99.90;;;;;;5051558;28;20247;-71
2023/12/20 07:19:14;;;;;;;0.00;0.00;;;5.40;99.90;;;;;;5050899;28;20205;-71
2023/12/20 07:21:40;;;;;;;0.00;0.00;;;5.40;99.90;;;;;;5050523;28;20196;-71
2023/12/20 07:24:05;;;;;;;0.00;0.00;;;5.40;99.90;;;;;;5051128;28;20184;-70
2023/12/20 07:26:31;;;;;;;0.00;0.00;;;5.40;99.90;;;;;;5051027;28;20170;-71
2023/12/20 07:28:58;;;;;;;0.20;0.20;;;5.30;99.90;;;;;;5049893;28;20623;-71
2023/12/20 07:31:24;;;;;;;0.00;0.00;;;5.30;99.90;;;;;;5050863;28;20181;-71
2023/12/20 07:33:49;;;;;;;0.00;0.00;;;5.30;99.90;;;;;;5050831;28;20184;-71
2023/12/20 07:36:15;;;;;;;0.00;0.00;;;5.30;99.90;;;;;;5050709;28;20594;-71
2023/12/20 07:38:41;;;;;;;0.00;0.00;;;5.30;99.90;;;;;;5050570;28;20221;-71
2023/12/20 07:41:10;;;;;;;0.00;0.00;;;5.30;99.90;;;;;;5050638;28;20204;-71
2023/12/20 07:43:35;;;;;;;0.00;0.00;;;5.30;99.90;;;;;;5050745;28;20165;-71
2023/12/20 07:46:08;;;;;;;0.00;0.00;;;5.30;99.90;;;;;;5050682;28;20181;-71
2023/12/20 07:48:37;;;;;;;0.00;0.00;;;5.20;99.90;;;;;;5050535;28;20212;-71
2023/12/20 07:51:04;;;;;;;0.00;0.00;;;5.20;99.90;;;;;;5050487;28;20177;-71
2023/12/20 07:53:29;;;;;;;0.00;0.00;;;5.20;99.90;;;;;;5050554;28;20181;-71
2023/12/20 07:55:55;;;;;;;0.00;0.00;;;5.20;99.90;;;;;;5049211;28;20260;-71
2023/12/20 07:58:21;;;;;;;0.00;0.00;;;5.20;99.90;;;;;;5050566;28;20189;-71
2023/12/20 08:00:47;;;;;;;0.00;0.00;;;5.20;99.90;;;;;;5050526;28;20221;-70
2023/12/20 08:03:12;;;;;;;0.00;0.00;;;5.20;99.90;;;;;;5050287;28;20180;-71
2023/12/20 08:05:40;;;;;;;0.00;0.00;;;5.20;99.90;;;;;;5050193;28;20641;-71
2023/12/20 08:08:06;;;;;;;0.00;0.00;;;5.20;99.90;;;;;;5050327;28;20172;-70
2023/12/20 08:10:32;;;;;;;0.00;0.00;;;5.20;99.90;;;;;;5050395;28;20177;-71
2023/12/20 08:12:57;;;;;;;0.00;0.00;;;5.20;99.90;;;;;;5050481;28;20545;-72
2023/12/20 08:15:23;;;;;;;0.00;0.00;;;5.20;99.90;;;;;;5050606;28;20825;-72
2023/12/20 08:17:50;;;;;;;0.00;0.00;;;5.20;99.90;;;;;;5050460;28;20181;-71
2023/12/20 08:20:16;;;;;;;0.00;0.00;;;5.30;99.90;;;;;;5050363;28;20262;-71
2023/12/20 08:22:42;;;;;;;0.00;0.00;;;5.30;99.90;;;;;;5050313;28;20174;-70
2023/12/20 08:25:08;;;;;;;0.00;0.00;;;5.30;99.90;;;;;;5050255;28;20788;-71
2023/12/20 08:27:36;;;;;;;0.00;0.00;;;5.40;99.90;;;;;;5050219;28;20177;-72
2023/12/20 08:30:02;;;;;;;0.00;0.00;;;5.40;99.90;;;;;;5050060;28;20239;-71
2023/12/20 08:32:27;;;;;;;0.00;0.00;;;5.40;99.90;;;;;;5051346;28;20182;-70
2023/12/20 08:34:53;;;;;;;0.20;0.20;;;5.40;99.90;;;;;;5053861;28;20323;-71
2023/12/20 08:37:18;;;;;;;0.00;0.00;;;5.50;99.90;;;;;;5054168;28;20177;-72
2023/12/20 08:39:44;;;;;;;0.00;0.00;;;5.50;99.90;;;;;;5053866;28;20261;-71
2023/12/20 08:42:10;;;;;;;0.00;0.00;;;5.50;99.90;;;;;;5053927;28;20587;-71
2023/12/20 08:44:35;;;;;;;0.00;0.00;;;5.60;99.90;;;;;;5054126;28;20173;-71
2023/12/20 08:47:01;;;;;;;0.00;0.00;;;5.60;99.90;;;;;;5054069;28;20504;-71
2023/12/20 08:49:27;;;;;;;0.00;0.00;;;5.60;99.90;;;;;;5054011;28;20577;-71
2023/12/20 08:51:53;;;;;;;0.00;0.00;;;5.70;99.90;;;;;;5053674;28;20165;-72
2023/12/20 08:54:19;;;;;;;0.00;0.00;;;5.70;99.90;;;;;;5053891;28;20181;-71
2023/12/20 08:56:45;;;;;;;0.00;0.00;;;5.60;99.90;;;;;;5053564;28;20252;-71
2023/12/20 08:59:11;;;;;;;0.00;0.00;;;5.70;99.90;;;;;;5053616;28;20213;-71
2023/12/20 09:01:37;;;;;;;0.00;0.00;;;5.70;99.90;;;;;;5053750;28;20181;-71
2023/12/20 09:04:03;;;;;;;0.00;0.00;;;5.60;99.90;;;;;;5053574;28;20178;-71
2023/12/20 09:06:28;;;;;;;0.00;0.00;;;5.60;99.90;;;;;;5053647;28;20180;-71
2023/12/20 09:08:54;;;;;;;0.00;0.00;;;5.60;99.90;;;;;;5053364;28;20649;-71
2023/12/20 09:11:19;;;;;;;0.00;0.00;;;5.70;99.90;;;;;;5052137;28;20178;-72
2023/12/20 09:13:45;;;;;;;0.00;0.00;;;5.80;99.90;;;;;;5053470;28;20173;-70
2023/12/20 09:16:10;;;;;;;0.00;0.00;;;5.90;99.90;;;;;;5053346;28;20181;-71
2023/12/20 09:18:36;;;;;;;0.00;0.00;;;6.00;99.90;;;;;;5052123;28;20178;-72
2023/12/20 09:21:02;;;;;;;0.00;0.00;;;6.10;99.90;;;;;;5053275;28;20213;-72
2023/12/20 09:23:27;;;;;;;0.00;0.00;;;6.30;99.90;;;;;;5053361;28;20173;-71
2023/12/20 09:25:53;;;;;;;0.00;0.00;;;6.40;99.90;;;;;;5051913;28;20212;-72
2023/12/20 09:28:19;;;;;;;0.00;0.00;;;6.50;99.90;;;;;;5053262;28;20235;-70
2023/12/20 09:30:45;;;;;;;0.10;0.10;;;6.50;99.90;;;;;;5053050;28;20182;-71
2023/12/20 09:33:12;;;;;;;0.00;0.00;;;6.40;99.90;;;;;;5052792;28;20212;-72
2023/12/20 09:35:37;;;;;;;0.00;0.00;;;6.40;99.90;;;;;;5053045;28;20177;-71
2023/12/20 09:38:03;;;;;;;0.00;0.00;;;6.30;99.90;;;;;;5052809;28;20229;-72
2023/12/20 09:40:33;;;;;;;0.43;0.43;;;6.20;99.90;;;;;;5052780;28;20221;-69
2023/12/20 09:43:05;;;;;;;0.00;0.00;;;6.20;99.90;;;;;;5053014;28;20278;-69
2023/12/20 09:45:31;;;;;;;0.00;0.00;;;6.20;99.90;;;;;;5052253;28;20200;-71
2023/12/20 09:47:58;;;;;;;0.00;0.00;;;6.20;99.90;;;;;;5052813;28;20177;-68
2023/12/20 09:50:24;;;;;;;0.10;0.08;;;6.20;99.90;;;;;;5052872;28;20180;-69
2023/12/20 09:52:53;;;;;;;0.00;0.00;;;6.10;99.90;;;;;;5052745;28;20166;-71
2023/12/20 09:55:20;;;;;;;0.00;0.00;;;6.10;99.90;;;;;;5052740;28;20173;-72
2023/12/20 09:57:46;;;;;;;0.00;0.00;;;6.00;99.90;;;;;;5052576;28;20169;-72
2023/12/20 10:00:12;;;;;;;0.00;0.00;;;6.00;99.90;;;;;;5052377;28;20290;-73
2023/12/20 10:02:50;;;;;;;0.00;0.00;;;6.00;99.90;;;;;;5051327;28;20177;-73
2023/12/20 10:05:18;;;;;;;0.00;0.00;;;6.00;99.90;;;;;;5052696;28;20181;-73
2023/12/20 10:07:44;;;;;;;0.00;0.00;;;6.00;99.90;;;;;;5052487;28;20633;-72
2023/12/20 10:10:12;;;;;;;0.00;0.00;;;6.00;99.90;;;;;;5052298;28;20189;-73
2023/12/20 10:12:38;;;;;;;0.00;0.00;;;6.00;99.90;;;;;;5052319;28;20515;-72
2023/12/20 10:15:04;;;;;;;0.00;0.00;;;6.00;99.90;;;;;;5052228;28;20180;-72
2023/12/20 10:17:30;;;;;;;0.00;0.00;;;5.90;99.90;;;;;;5052152;28;20648;-72
2023/12/20 10:19:55;;;;;;;0.32;0.20;;;5.90;99.90;;;;;;5052076;28;20232;-73
2023/12/20 10:22:21;;;;;;;0.00;0.00;;;5.90;99.90;;;;;;5051090;28;20178;-72
2023/12/20 10:24:47;;;;;;;0.00;0.00;;;5.80;99.90;;;;;;5052195;28;20188;-71
2023/12/20 10:27:12;;;;;;;0.00;0.00;;;5.80;99.90;;;;;;5051887;28;20185;-71
2023/12/20 10:29:38;;;;;;;0.00;0.00;;;5.80;99.90;;;;;;5051939;28;20231;-72
2023/12/20 10:32:26;;;;;;;0.03;0.03;;;5.90;99.90;;;;;;5051760;28;20268;-72
2023/12/20 10:34:53;;;;;;;0.00;0.00;;;5.90;99.90;;;;;;5051884;28;20177;-72
2023/12/20 10:37:19;;;;;;;0.00;0.00;;;6.00;99.90;;;;;;5052063;28;20170;-72
2023/12/20 10:39:51;;;;;;;0.00;0.00;;;6.00;99.90;;;;;;5051519;28;20252;-71
2023/12/20 10:42:20;;;;;;;0.00;0.00;;;6.10;99.90;;;;;;5050567;28;20212;-72
2023/12/20 10:44:46;;;;;;;0.00;0.00;;;6.10;99.90;;;;;;5051742;28;20173;-72
2023/12/20 10:47:13;;;;;;;0.00;0.00;;;6.10;99.90;;;;;;5050400;28;20177;-71
2023/12/20 10:49:40;;;;;;;0.00;0.00;;;6.10;99.90;;;;;;5051761;28;20177;-73
2023/12/20 10:52:06;;;;;;;0.00;0.00;;;6.10;99.90;;;;;;5051561;28;20192;-73
2023/12/20 10:54:32;;;;;;;0.00;0.00;;;6.10;99.90;;;;;;5051526;28;20184;-72
2023/12/20 10:56:58;;;;;;;0.15;0.15;;;6.10;99.90;;;;;;5050381;28;20288;-72
2023/12/20 10:59:25;;;;;;;0.00;0.00;;;6.20;99.90;;;;;;5051254;28;20244;-72
2023/12/20 11:01:56;;;;;;;0.13;0.13;;;6.20;99.90;;;;;;5051187;28;20242;-71
2023/12/20 11:04:36;;;;;;;0.10;0.10;;;6.20;99.90;;;;;;5051393;28;20180;-72
2023/12/20 11:07:33;;;;;;;0.03;0.03;;;6.20;99.90;;;;;;5051140;28;20204;-72
2023/12/20 11:10:15;;;;;;;0.00;0.00;;;6.20;99.90;;;;;;5051081;28;20702;-72
2023/12/20 11:12:53;;;;;;;0.10;0.10;;;6.20;99.90;;;;;;5051247;28;20173;-72
2023/12/20 11:15:20;;;;;;;0.00;0.00;;;6.20;99.90;;;;;;5051272;28;20625;-73
2023/12/20 11:17:48;;;;;;;0.00;0.00;;;6.30;99.90;;;;;;5051154;28;20641;-72
2023/12/20 11:20:14;;;;;;;0.00;0.00;;;6.40;99.90;;;;;;5049743;28;20255;-72
2023/12/20 11:22:52;;;;;;;0.00;0.00;;;6.40;99.90;;;;;;5050980;28;20197;-72
2023/12/20 11:25:18;;;;;;;0.10;0.10;;;6.50;99.90;;;;;;5051025;28;20182;-71
2023/12/20 11:27:44;;;;;;;0.00;0.00;;;6.40;99.90;;;;;;5050961;28;20173;-73
2023/12/20 11:30:11;;;;;;;0.00;0.00;;;6.50;99.90;;;;;;5050734;28;20174;-72
2023/12/20 11:32:37;;;;;;;0.00;0.00;;;6.50;99.90;;;;;;5050824;28;20196;-72
2023/12/20 11:35:08;;;;;;;0.00;0.00;;;6.40;99.90;;;;;;5050719;28;20524;-72
2023/12/20 11:37:42;;;;;;;0.00;0.00;;;6.50;99.90;;;;;;5050552;28;20633;-72
2023/12/20 11:40:11;;;;;;;0.00;0.00;;;6.50;99.90;;;;;;5050701;28;20255;-73
2023/12/20 11:42:44;;;;;;;0.00;0.00;;;6.50;99.90;;;;;;5050858;28;20181;-73
2023/12/20 11:45:21;;;;;;;0.00;0.00;;;6.60;99.90;;;;;;5050617;28;20174;-73
2023/12/20 11:47:51;;;;;;;0.00;0.00;;;6.50;99.90;;;;;;5050779;28;20184;-72
2023/12/20 11:50:17;;;;;;;0.00;0.00;;;6.50;99.90;;;;;;5050803;28;20215;-73
2023/12/20 11:52:43;;;;;;;0.00;0.00;;;6.60;99.90;;;;;;5050667;28;20575;-73
2023/12/20 11:55:08;;;;;;;0.00;0.00;;;6.60;99.90;;;;;;5050665;28;20312;-73
2023/12/20 11:57:35;;;;;;;0.00;0.00;;;6.70;99.90;;;;;;5050388;28;20245;-73
2023/12/20 12:00:02;;;;;;;0.00;0.00;;;6.70;99.90;;;;;;5050512;28;20213;-73
2023/12/20 12:02:28;;;;;;;0.00;0.00;;;6.70;99.90;;;;;;5050621;28;20169;-73
2023/12/20 12:04:53;;;;;;;0.00;0.00;;;6.60;99.90;;;;;;5050384;28;20173;-73
2023/12/20 12:07:20;;;;;;;0.00;0.00;;;6.60;99.90;;;;;;5051623;28;20199;-73
2023/12/20 12:09:46;;;;;;;0.00;0.00;;;6.60;99.90;;;;;;5054533;28;20197;-73
2023/12/20 12:12:12;;;;;;;0.00;0.00;;;6.60;99.90;;;;;;5054321;28;20249;-74
2023/12/20 12:14:40;;;;;;;0.00;0.00;;;6.60;99.90;;;;;;5054594;28;20177;-74
2023/12/20 12:17:11;;;;;;;0.00;0.00;;;6.50;99.90;;;;;;5054439;28;20178;-72
2023/12/20 12:19:37;;;;;;;0.00;0.00;;;6.40;99.90;;;;;;5054532;28;20220;-73
2023/12/20 12:22:16;;;;;;;0.00;0.00;;;6.40;99.90;;;;;;5054553;28;20165;-72
2023/12/20 12:24:43;;;;;;;0.00;0.00;;;6.30;99.90;;;;;;5055913;28;20229;-72
2023/12/20 12:27:09;;;;;;;0.00;0.00;;;6.40;99.90;;;;;;5054688;28;20174;-72
2023/12/20 12:29:36;;;;;;;0.00;0.00;;;6.40;99.90;;;;;;5054759;28;20173;-71
2023/12/20 12:32:05;;;;;;;0.00;0.00;;;6.50;99.90;;;;;;5054152;28;20181;-72
2023/12/20 12:34:31;;;;;;;0.00;0.00;;;6.50;99.90;;;;;;5054387;28;20183;-72
2023/12/20 12:36:57;;;;;;;0.00;0.00;;;6.60;99.90;;;;;;5054249;28;20173;-73
2023/12/20 12:39:27;;;;;;;0.00;0.00;;;6.60;99.90;;;;;;5054100;28;20240;-73
2023/12/20 12:41:53;;;;;;;0.10;0.10;;;6.60;99.90;;;;;;5054344;28;20204;-73
2023/12/20 12:44:19;;;;;;;0.00;0.00;;;6.50;99.90;;;;;;5054239;28;20162;-73
2023/12/20 12:46:46;;;;;;;0.00;0.00;;;6.50;99.90;;;;;;5054605;28;20180;-70
2023/12/20 12:49:11;;;;;;;0.00;0.00;;;6.40;99.90;;;;;;5054186;28;20181;-73
2023/12/20 12:51:37;;;;;;;0.15;0.15;;;6.30;99.90;;;;;;5058815;28;20787;-72
2023/12/20 12:54:03;;;;;;;0.00;0.00;;;6.30;99.90;;;;;;5061273;28;20212;-72